createdAt,value
2023-01-13T00:02:00.497Z,14.18
2023-01-13T00:04:28.054Z,14.18
2023-01-13T00:06:56.811Z,14.25
2023-01-13T00:09:24.093Z,14.18
2023-01-13T00:11:51.447Z,14.15
2023-01-13T00:14:18.630Z,14.13
2023-01-13T00:16:45.950Z,14.11
2023-01-13T00:19:13.151Z,14.13
2023-01-13T00:21:40.269Z,14.16
2023-01-13T00:24:11.210Z,14.15
2023-01-13T00:26:38.391Z,14.14
2023-01-13T00:29:05.490Z,14.07
2023-01-13T00:31:32.783Z,14.10
2023-01-13T00:34:01.654Z,14.09
2023-01-13T00:36:30.251Z,14.10
2023-01-13T00:38:58.174Z,14.10
2023-01-13T00:41:28.086Z,14.16
2023-01-13T00:43:55.216Z,14.19
2023-01-13T00:46:22.745Z,14.23
2023-01-13T00:48:49.912Z,14.24
2023-01-13T00:51:20.107Z,14.25
2023-01-13T00:53:50.040Z,14.26
2023-01-13T00:56:30.391Z,14.25
2023-01-13T00:59:07.057Z,14.30
2023-01-13T01:01:34.458Z,14.32
2023-01-13T01:04:01.710Z,14.32
2023-01-13T01:06:29.005Z,14.33
2023-01-13T01:08:56.727Z,14.40
2023-01-13T01:11:26.743Z,14.36
2023-01-13T01:13:56.730Z,14.42
2023-01-13T01:16:29.576Z,14.41
2023-01-13T01:18:57.775Z,14.42
2023-01-13T01:21:27.101Z,14.40
2023-01-13T01:23:55.271Z,14.43
2023-01-13T01:26:24.217Z,14.37
2023-01-13T01:28:52.175Z,14.42
2023-01-13T01:31:21.881Z,14.42
2023-01-13T01:33:51.451Z,14.46
2023-01-13T01:36:21.538Z,14.45
2023-01-13T01:38:49.447Z,14.86
2023-01-13T01:41:19.354Z,14.61
2023-01-13T01:43:52.871Z,14.52
2023-01-13T01:46:20.125Z,14.51
2023-01-13T01:48:47.396Z,14.45
2023-01-13T01:51:16.626Z,14.47
2023-01-13T01:53:44.511Z,14.61
2023-01-13T01:56:11.854Z,14.84
2023-01-13T01:58:46.355Z,14.81
2023-01-13T02:01:14.299Z,15.25
2023-01-13T02:03:47.217Z,15.45
2023-01-13T02:06:17.016Z,15.55
2023-01-13T02:08:44.614Z,15.71
2023-01-13T02:11:27.427Z,15.89
2023-01-13T02:13:54.881Z,15.78
2023-01-13T02:16:24.359Z,15.96
2023-01-13T02:19:05.988Z,16.02
2023-01-13T02:22:09.675Z,16.16
2023-01-13T02:25:11.530Z,16.31
2023-01-13T02:27:57.471Z,16.28
2023-01-13T02:30:38.534Z,16.18
2023-01-13T02:33:25.311Z,16.34
2023-01-13T02:36:01.667Z,16.24
2023-01-13T02:38:34.673Z,16.13
2023-01-13T02:41:10.991Z,16.03
2023-01-13T02:43:41.710Z,16.09
2023-01-13T02:46:17.798Z,16.09
2023-01-13T02:48:50.730Z,16.07
2023-01-13T02:51:24.351Z,15.98
2023-01-13T02:53:58.171Z,15.47
2023-01-13T02:56:27.890Z,15.86
2023-01-13T02:58:58.036Z,15.87
2023-01-13T03:01:26.822Z,16.10
2023-01-13T03:03:54.105Z,15.92
2023-01-13T03:06:44.385Z,16.11
2023-01-13T03:09:19.541Z,16.07
2023-01-13T03:12:00.297Z,16.06
2023-01-13T03:14:40.547Z,16.04
2023-01-13T03:17:21.923Z,16.18
2023-01-13T03:20:02.421Z,16.24
2023-01-13T03:22:38.104Z,16.24
2023-01-13T03:25:16.243Z,16.11
2023-01-13T03:27:51.826Z,16.10
2023-01-13T03:30:26.772Z,16.07
2023-01-13T03:33:03.430Z,16.14
2023-01-13T03:35:36.845Z,16.01
2023-01-13T03:38:10.951Z,15.87
2023-01-13T03:40:46.143Z,15.97
2023-01-13T03:43:21.051Z,15.90
2023-01-13T03:45:56.478Z,15.92
2023-01-13T03:48:31.545Z,15.95
2023-01-13T03:51:06.501Z,16.14
2023-01-13T03:53:40.288Z,16.04
2023-01-13T03:56:15.944Z,15.86
2023-01-13T03:58:49.384Z,16.09
2023-01-13T04:01:21.980Z,16.14
2023-01-13T04:03:59.825Z,15.97
2023-01-13T04:06:47.613Z,15.99
2023-01-13T04:09:24.381Z,16.05
2023-01-13T04:12:00.747Z,15.95
2023-01-13T04:14:29.665Z,15.99
2023-01-13T04:16:57.506Z,16.00
2023-01-13T04:19:26.107Z,16.06
2023-01-13T04:21:53.604Z,15.96
2023-01-13T04:24:20.728Z,16.04
2023-01-13T04:26:47.790Z,15.98
2023-01-13T04:29:15.799Z,16.05
2023-01-13T04:31:43.107Z,16.00
2023-01-13T04:34:11.342Z,15.89
2023-01-13T04:36:40.005Z,15.96
2023-01-13T04:39:07.143Z,15.88
2023-01-13T04:41:34.289Z,15.88
2023-01-13T04:44:01.324Z,15.83
2023-01-13T04:46:28.476Z,15.76
2023-01-13T04:48:55.663Z,15.77
2023-01-13T04:51:22.726Z,15.41
2023-01-13T04:53:51.308Z,15.44
2023-01-13T04:56:18.426Z,15.61
2023-01-13T04:58:45.486Z,15.66
2023-01-13T05:01:12.723Z,15.72
2023-01-13T05:03:39.966Z,15.63
2023-01-13T05:06:07.525Z,15.75
2023-01-13T05:08:34.625Z,15.69
2023-01-13T05:11:03.308Z,15.74
2023-01-13T05:13:30.489Z,15.71
2023-01-13T05:16:00.600Z,15.64
2023-01-13T05:18:30.964Z,15.70
2023-01-13T05:20:58.138Z,15.68
2023-01-13T05:23:25.205Z,15.52
2023-01-13T05:25:52.545Z,15.66
2023-01-13T05:28:21.226Z,15.57
2023-01-13T05:30:48.696Z,15.59
2023-01-13T05:33:18.127Z,15.39
2023-01-13T05:35:47.240Z,15.47
2023-01-13T05:38:15.366Z,15.39
2023-01-13T05:40:43.126Z,15.40
2023-01-13T05:43:12.287Z,15.40
2023-01-13T05:45:40.804Z,15.52
2023-01-13T05:48:08.019Z,15.37
2023-01-13T05:50:35.192Z,15.48
2023-01-13T05:53:02.405Z,15.50
2023-01-13T05:55:29.565Z,15.40
2023-01-13T05:57:56.665Z,15.41
2023-01-13T06:00:24.484Z,15.46
2023-01-13T06:02:53.535Z,15.43
2023-01-13T06:05:20.666Z,15.33
2023-01-13T06:07:47.773Z,15.36
2023-01-13T06:10:14.949Z,15.29
2023-01-13T06:12:42.165Z,15.45
2023-01-13T06:15:10.488Z,15.30
2023-01-13T06:17:37.662Z,15.29
2023-01-13T06:20:07.208Z,15.33
2023-01-13T06:22:39.566Z,15.32
2023-01-13T06:25:16.151Z,15.23
2023-01-13T06:27:43.846Z,15.22
2023-01-13T06:30:12.376Z,15.22
2023-01-13T06:32:46.003Z,15.20
2023-01-13T06:35:22.767Z,15.10
2023-01-13T06:37:55.391Z,15.23
2023-01-13T06:40:23.691Z,15.22
2023-01-13T06:42:55.047Z,15.22
2023-01-13T06:45:24.167Z,15.17
2023-01-13T06:47:51.267Z,15.14
2023-01-13T06:50:19.846Z,15.22
2023-01-13T06:52:47.129Z,15.12
2023-01-13T06:55:14.428Z,15.18
2023-01-13T06:57:49.966Z,15.15
2023-01-13T07:00:18.232Z,15.09
2023-01-13T07:02:46.008Z,14.92
2023-01-13T07:05:14.069Z,14.93
2023-01-13T07:07:42.993Z,15.08
2023-01-13T07:10:13.123Z,14.99
2023-01-13T07:12:41.407Z,15.07
2023-01-13T07:15:09.803Z,14.77
2023-01-13T07:17:36.947Z,14.88
2023-01-13T07:20:04.787Z,15.00
2023-01-13T07:22:32.007Z,15.11
2023-01-13T07:25:00.652Z,15.11
2023-01-13T07:27:27.866Z,15.03
2023-01-13T07:29:55.031Z,15.11
2023-01-13T07:32:22.253Z,15.00
2023-01-13T07:34:49.428Z,14.98
2023-01-13T07:37:16.608Z,14.92
2023-01-13T07:39:43.686Z,15.09
2023-01-13T07:42:12.250Z,14.99
2023-01-13T07:44:39.551Z,14.94
2023-01-13T07:47:06.787Z,15.00
2023-01-13T07:49:34.011Z,15.10
2023-01-13T07:52:01.145Z,15.22
2023-01-13T07:54:39.583Z,15.11
2023-01-13T07:57:07.745Z,15.11
2023-01-13T07:59:36.466Z,15.10
2023-01-13T08:02:03.792Z,15.14
2023-01-13T08:04:31.142Z,15.01
2023-01-13T08:06:58.435Z,15.18
2023-01-13T08:09:25.555Z,15.24
2023-01-13T08:11:54.686Z,15.17
2023-01-13T08:14:21.911Z,15.23
2023-01-13T08:16:50.427Z,15.21
2023-01-13T08:19:17.626Z,15.19
2023-01-13T08:21:44.891Z,15.16
2023-01-13T08:24:12.212Z,15.14
2023-01-13T08:26:39.428Z,15.24
2023-01-13T08:29:06.571Z,15.25
2023-01-13T08:31:33.708Z,15.32
2023-01-13T08:34:02.411Z,15.25
2023-01-13T08:36:29.687Z,15.33
2023-01-13T08:38:56.965Z,15.31
2023-01-13T08:41:24.152Z,15.30
2023-01-13T08:43:53.982Z,15.20
2023-01-13T08:46:21.223Z,15.21
2023-01-13T08:48:48.466Z,15.22
2023-01-13T08:51:17.039Z,15.18
2023-01-13T08:53:44.110Z,15.18
2023-01-13T08:56:11.388Z,15.28
2023-01-13T08:58:38.747Z,15.19
2023-01-13T09:01:06.698Z,15.20
2023-01-13T09:03:34.206Z,15.32
2023-01-13T09:06:01.392Z,15.30
2023-01-13T09:08:30.052Z,15.29
2023-01-13T09:10:57.908Z,15.34
2023-01-13T09:13:25.605Z,15.29
2023-01-13T09:15:52.925Z,15.35
2023-01-13T09:18:20.107Z,15.36
2023-01-13T09:20:47.318Z,15.41
2023-01-13T09:23:14.508Z,15.44
2023-01-13T09:25:43.111Z,15.40
2023-01-13T09:28:10.284Z,15.51
2023-01-13T09:30:37.948Z,15.48
2023-01-13T09:33:05.336Z,15.42
2023-01-13T09:35:32.449Z,15.50
2023-01-13T09:37:59.551Z,15.32
2023-01-13T09:40:27.050Z,15.60
2023-01-13T09:43:02.846Z,15.99
2023-01-13T09:45:38.096Z,15.97
2023-01-13T09:48:13.828Z,15.87
2023-01-13T09:50:52.989Z,15.81
2023-01-13T09:53:26.420Z,15.68
2023-01-13T09:55:54.986Z,15.47
2023-01-13T09:58:23.870Z,15.40
2023-01-13T10:01:06.697Z,15.17
2023-01-13T10:03:36.238Z,15.04
2023-01-13T10:06:13.529Z,15.00
2023-01-13T10:08:44.130Z,14.83
2023-01-13T10:11:20.109Z,15.02
2023-01-13T10:13:52.490Z,15.11
2023-01-13T10:16:32.631Z,15.16
2023-01-13T10:19:06.663Z,15.14
2023-01-13T10:22:09.265Z,15.22
2023-01-13T10:25:07.714Z,15.38
2023-01-13T10:27:36.737Z,15.90
2023-01-13T10:30:20.799Z,15.92
2023-01-13T10:32:55.611Z,16.26
2023-01-13T10:35:51.212Z,16.38
2023-01-13T10:38:20.711Z,16.24
2023-01-13T10:40:50.440Z,16.12
2023-01-13T10:43:17.701Z,15.92
2023-01-13T10:45:57.114Z,15.56
2023-01-13T10:48:38.253Z,15.51
2023-01-13T10:51:20.707Z,15.41
2023-01-13T10:54:00.648Z,15.77
2023-01-13T10:56:31.200Z,16.62
2023-01-13T10:59:17.544Z,16.91
2023-01-13T11:01:59.813Z,17.08
2023-01-13T11:04:31.075Z,16.98
2023-01-13T11:06:58.824Z,16.83
2023-01-13T11:09:29.590Z,17.38
2023-01-13T11:11:58.090Z,17.89
2023-01-13T11:14:36.478Z,18.38
2023-01-13T11:17:14.729Z,18.55
2023-01-13T11:19:50.917Z,18.56
2023-01-13T11:22:27.130Z,18.50
2023-01-13T11:25:00.057Z,18.51
2023-01-13T11:27:42.753Z,18.72
2023-01-13T11:30:26.221Z,18.46
2023-01-13T11:33:06.009Z,18.17
2023-01-13T11:35:41.133Z,18.15
2023-01-13T11:38:14.975Z,18.02
2023-01-13T11:40:47.289Z,17.86
2023-01-13T11:43:31.702Z,17.78
2023-01-13T11:46:01.597Z,17.69
2023-01-13T11:48:36.045Z,17.61
2023-01-13T11:51:16.864Z,17.45
2023-01-13T11:54:00.812Z,17.24
2023-01-13T11:56:58.911Z,17.36
2023-01-13T12:00:00.937Z,17.70
2023-01-13T12:02:51.737Z,17.57
2023-01-13T12:05:34.517Z,17.43
2023-01-13T12:08:18.787Z,16.82
2023-01-13T12:11:01.595Z,16.80
2023-01-13T12:13:40.432Z,16.62
2023-01-13T12:16:21.505Z,16.81
2023-01-13T12:19:27.165Z,16.88
2023-01-13T12:22:11.847Z,18.05
2023-01-13T12:24:49.701Z,17.97
2023-01-13T12:27:29.581Z,18.20
2023-01-13T12:30:02.017Z,17.97
2023-01-13T12:32:36.397Z,18.19
2023-01-13T12:35:23.697Z,18.22
2023-01-13T12:38:02.942Z,18.34
2023-01-13T12:40:51.379Z,18.20
2023-01-13T12:43:20.824Z,18.19
2023-01-13T12:45:48.213Z,18.25
2023-01-13T12:48:46.058Z,18.59
2023-01-13T12:51:23.041Z,18.47
2023-01-13T12:53:52.540Z,18.29
2023-01-13T12:56:46.847Z,18.02
2023-01-13T12:59:44.117Z,17.86
2023-01-13T13:02:30.567Z,17.34
2023-01-13T13:05:12.605Z,17.75
2023-01-13T13:07:45.985Z,17.60
2023-01-13T13:10:23.793Z,17.53
2023-01-13T13:13:00.111Z,17.34
2023-01-13T13:15:30.178Z,17.26
2023-01-13T13:18:20.656Z,17.29
2023-01-13T13:21:03.580Z,17.07
2023-01-13T13:23:41.141Z,17.06
2023-01-13T13:26:21.347Z,17.05
2023-01-13T13:29:07.897Z,16.91
2023-01-13T13:32:04.279Z,16.74
2023-01-13T13:34:44.905Z,16.60
2023-01-13T13:37:41.857Z,16.74
2023-01-13T13:40:11.680Z,16.62
2023-01-13T13:42:44.901Z,16.63
2023-01-13T13:45:22.929Z,16.68
2023-01-13T13:47:50.206Z,16.16
2023-01-13T13:50:20.587Z,16.28
2023-01-13T13:52:55.935Z,16.32
2023-01-13T13:55:27.494Z,16.27
2023-01-13T13:57:59.253Z,15.95
2023-01-13T14:00:30.918Z,15.65
2023-01-13T14:03:01.662Z,15.92
2023-01-13T14:05:31.004Z,15.76
2023-01-13T14:08:03.981Z,15.77
2023-01-13T14:10:34.368Z,15.74
2023-01-13T14:13:14.436Z,16.02
2023-01-13T14:15:42.118Z,16.08
2023-01-13T14:18:15.828Z,15.54
2023-01-13T14:20:43.493Z,15.04
2023-01-13T14:23:17.869Z,15.29
2023-01-13T14:25:49.261Z,14.84
2023-01-13T14:28:29.238Z,15.47
2023-01-13T14:30:57.760Z,15.01
2023-01-13T14:33:34.062Z,15.63
2023-01-13T14:36:14.163Z,15.77
2023-01-13T14:38:43.434Z,15.85
2023-01-13T14:41:23.927Z,15.74
2023-01-13T14:43:57.387Z,16.02
2023-01-13T14:46:25.598Z,15.76
2023-01-13T14:49:00.548Z,15.80
2023-01-13T14:51:30.683Z,15.86
2023-01-13T14:53:58.352Z,15.92
2023-01-13T14:56:44.583Z,16.01
2023-01-13T14:59:36.106Z,16.00
2023-01-13T15:02:47.173Z,16.04
2023-01-13T15:05:43.140Z,16.04
2023-01-13T15:08:27.970Z,15.87
2023-01-13T15:10:57.962Z,15.91
2023-01-13T15:13:31.843Z,15.91
2023-01-13T15:16:03.179Z,15.91
2023-01-13T15:18:30.720Z,15.94
2023-01-13T15:20:58.249Z,15.92
2023-01-13T15:23:25.726Z,15.93
2023-01-13T15:25:54.592Z,15.85
2023-01-13T15:28:24.153Z,15.89
2023-01-13T15:30:53.815Z,15.66
2023-01-13T15:33:22.879Z,15.84
2023-01-13T15:35:52.508Z,15.84
2023-01-13T15:38:21.488Z,15.92
2023-01-13T15:40:50.547Z,15.94
2023-01-13T15:43:20.041Z,15.98
2023-01-13T15:45:47.461Z,15.94
2023-01-13T15:48:14.774Z,15.93
2023-01-13T15:50:44.899Z,15.92
2023-01-13T15:53:14.495Z,15.90
2023-01-13T15:55:45.639Z,15.88
2023-01-13T15:58:14.071Z,15.91
2023-01-13T16:00:41.978Z,15.90
2023-01-13T16:03:12.777Z,15.88
2023-01-13T16:05:40.621Z,15.87
2023-01-13T16:08:15.801Z,15.83
2023-01-13T16:10:43.765Z,15.85
2023-01-13T16:13:11.350Z,15.86
2023-01-13T16:15:44.872Z,15.84
2023-01-13T16:18:18.452Z,15.88
2023-01-13T16:20:46.755Z,15.85
2023-01-13T16:23:15.618Z,15.70
2023-01-13T16:25:42.763Z,15.77
2023-01-13T16:28:21.429Z,15.79
2023-01-13T16:30:49.132Z,15.80
2023-01-13T16:33:16.795Z,15.79
2023-01-13T16:36:09.429Z,15.82
2023-01-13T16:38:32.949Z,15.83
2023-01-13T16:41:00.133Z,15.83
2023-01-13T16:43:27.303Z,15.79
2023-01-13T16:45:54.708Z,15.82
2023-01-13T16:48:22.002Z,15.79
2023-01-13T16:50:49.332Z,15.78
2023-01-13T16:53:16.513Z,15.69
2023-01-13T16:55:46.135Z,17.62
2023-01-13T16:58:18.115Z,18.46
2023-01-13T17:00:45.573Z,19.15
2023-01-13T17:03:13.502Z,19.70
2023-01-13T17:05:41.406Z,18.80
2023-01-13T17:08:13.465Z,18.27
2023-01-13T17:10:41.098Z,17.83
2023-01-13T17:13:15.964Z,17.41
2023-01-13T17:15:44.655Z,17.12
2023-01-13T17:18:12.323Z,16.93
2023-01-13T17:20:39.579Z,16.66
2023-01-13T17:23:07.343Z,16.42
2023-01-13T17:25:35.417Z,16.36
2023-01-13T17:28:02.834Z,16.24
2023-01-13T17:30:31.657Z,16.08
2023-01-13T17:32:59.119Z,15.99
2023-01-13T17:35:26.281Z,15.72
2023-01-13T17:37:54.505Z,15.66
2023-01-13T17:40:22.122Z,15.68
2023-01-13T17:42:49.264Z,15.60
2023-01-13T17:45:16.840Z,15.57
2023-01-13T17:47:47.340Z,15.43
2023-01-13T17:50:14.900Z,15.55
2023-01-13T17:52:42.230Z,15.51
2023-01-13T17:55:10.014Z,15.44
2023-01-13T17:57:37.175Z,15.51
2023-01-13T18:00:06.428Z,15.35
2023-01-13T18:02:33.722Z,15.23
2023-01-13T18:05:02.692Z,15.33
2023-01-13T18:07:29.811Z,15.38
2023-01-13T18:09:57.450Z,15.41
2023-01-13T18:12:25.052Z,15.34
2023-01-13T18:14:52.634Z,14.74
2023-01-13T18:17:19.945Z,14.96
2023-01-13T18:19:47.249Z,14.87
2023-01-13T18:22:16.201Z,14.94
2023-01-13T18:24:43.976Z,14.84
2023-01-13T18:27:13.668Z,14.74
2023-01-13T18:29:41.079Z,14.83
2023-01-13T18:32:08.803Z,14.55
2023-01-13T18:34:36.313Z,14.45
2023-01-13T18:37:04.267Z,14.68
2023-01-13T18:39:33.110Z,14.82
2023-01-13T18:42:00.311Z,15.04
2023-01-13T18:44:27.570Z,15.16
2023-01-13T18:46:54.966Z,15.08
2023-01-13T18:49:22.350Z,15.23
2023-01-13T18:51:50.708Z,15.23
2023-01-13T18:54:18.116Z,15.24
2023-01-13T18:56:47.408Z,15.34
2023-01-13T18:59:15.737Z,15.33
2023-01-13T19:01:43.574Z,15.39
2023-01-13T19:04:15.251Z,15.44
2023-01-13T19:06:44.409Z,15.44
2023-01-13T19:09:11.877Z,15.46
2023-01-13T19:11:39.129Z,15.48
2023-01-13T19:14:08.245Z,15.46
2023-01-13T19:16:35.708Z,15.49
2023-01-13T19:19:03.136Z,15.46
2023-01-13T19:21:30.432Z,15.49
2023-01-13T19:23:58.644Z,15.41
2023-01-13T19:26:25.909Z,15.45
2023-01-13T19:28:53.320Z,15.48
2023-01-13T19:31:22.121Z,15.47
2023-01-13T19:33:49.430Z,15.44
2023-01-13T19:36:17.069Z,15.47
2023-01-13T19:38:44.216Z,15.43
2023-01-13T19:41:12.808Z,15.40
2023-01-13T19:43:40.089Z,15.22
2023-01-13T19:46:07.502Z,15.17
2023-01-13T19:48:36.713Z,15.13
2023-01-13T19:51:04.974Z,15.12
2023-01-13T19:53:33.392Z,15.14
2023-01-13T19:56:02.154Z,14.90
2023-01-13T19:58:29.934Z,14.97
2023-01-13T20:00:57.338Z,14.95
2023-01-13T20:03:26.513Z,14.93
2023-01-13T20:05:55.819Z,14.90
2023-01-13T20:08:26.754Z,14.88
2023-01-13T20:10:54.113Z,14.75
2023-01-13T20:13:21.331Z,14.66
2023-01-13T20:15:49.107Z,14.66
2023-01-13T20:18:16.373Z,14.68
2023-01-13T20:20:43.536Z,14.66
2023-01-13T20:23:12.172Z,14.65
2023-01-13T20:25:42.450Z,14.58
2023-01-13T20:28:09.991Z,14.66
2023-01-13T20:30:40.333Z,14.61
2023-01-13T20:33:08.450Z,14.64
2023-01-13T20:35:36.032Z,14.62
2023-01-13T20:38:03.509Z,14.67
2023-01-13T20:40:39.073Z,14.73
2023-01-13T20:43:06.940Z,14.72
2023-01-13T20:45:34.406Z,14.71
2023-01-13T20:48:01.587Z,14.76
2023-01-13T20:50:28.933Z,14.78
2023-01-13T20:52:56.253Z,16.88
2023-01-13T20:55:23.760Z,17.92
2023-01-13T20:57:52.493Z,18.62
2023-01-13T21:00:20.674Z,18.07
2023-01-13T21:02:47.825Z,17.50
2023-01-13T21:05:15.671Z,17.06
2023-01-13T21:07:43.033Z,16.67
2023-01-13T21:10:11.071Z,16.32
2023-01-13T21:12:38.273Z,16.09
2023-01-13T21:15:10.446Z,15.87
2023-01-13T21:17:37.645Z,15.68
2023-01-13T21:20:07.746Z,15.57
2023-01-13T21:22:36.762Z,15.31
2023-01-13T21:25:06.318Z,15.29
2023-01-13T21:27:33.597Z,15.23
2023-01-13T21:30:00.864Z,15.17
2023-01-13T21:32:29.522Z,14.98
2023-01-13T21:34:56.919Z,14.98
2023-01-13T21:37:24.354Z,14.92
2023-01-13T21:39:53.680Z,14.89
2023-01-13T21:42:22.318Z,14.89
2023-01-13T21:44:49.616Z,14.84
2023-01-13T21:47:20.761Z,14.61
2023-01-13T21:49:49.795Z,14.71
2023-01-13T21:52:17.268Z,14.76
2023-01-13T21:54:44.655Z,14.72
2023-01-13T21:57:11.976Z,14.72
2023-01-13T21:59:39.674Z,14.73
2023-01-13T22:02:24.041Z,14.68
2023-01-13T22:04:54.914Z,14.71
2023-01-13T22:07:22.284Z,14.69
2023-01-13T22:09:49.614Z,14.66
2023-01-13T22:12:16.937Z,14.61
2023-01-13T22:14:44.350Z,14.65
2023-01-13T22:17:14.520Z,14.65
2023-01-13T22:19:41.957Z,14.63
2023-01-13T22:22:10.815Z,14.65
2023-01-13T22:24:38.094Z,14.64
2023-01-13T22:27:05.457Z,14.63
2023-01-13T22:29:33.019Z,14.63
2023-01-13T22:32:00.339Z,14.60
2023-01-13T22:34:27.725Z,14.56
2023-01-13T22:36:55.180Z,14.52
2023-01-13T22:39:24.274Z,14.47
2023-01-13T22:41:51.897Z,14.43
2023-01-13T22:44:19.915Z,14.43
2023-01-13T22:46:47.975Z,14.40
2023-01-13T22:49:16.939Z,14.37
2023-01-13T22:51:45.961Z,14.31
2023-01-13T22:54:13.960Z,14.31
2023-01-13T22:56:42.696Z,14.25
2023-01-13T22:59:12.954Z,14.22
2023-01-13T23:01:40.936Z,14.22
2023-01-13T23:04:11.465Z,14.22
2023-01-13T23:06:38.979Z,14.14
2023-01-13T23:09:07.139Z,14.16
2023-01-13T23:11:34.434Z,14.23
2023-01-13T23:14:05.916Z,14.27
2023-01-13T23:16:35.883Z,14.24
2023-01-13T23:19:04.340Z,14.28
2023-01-13T23:21:34.457Z,14.26
2023-01-13T23:24:02.157Z,14.28
2023-01-13T23:26:31.273Z,14.23
2023-01-13T23:28:59.755Z,14.24
2023-01-13T23:31:28.996Z,14.24
2023-01-13T23:33:56.309Z,14.18
2023-01-13T23:36:26.476Z,14.15
2023-01-13T23:38:53.743Z,14.07
2023-01-13T23:41:23.360Z,14.09
2023-01-13T23:43:51.923Z,14.02
2023-01-13T23:46:20.667Z,14.01
2023-01-13T23:48:50.635Z,13.99
2023-01-13T23:51:19.095Z,13.99
2023-01-13T23:53:48.268Z,13.97
2023-01-13T23:56:17.884Z,13.94
2023-01-13T23:58:45.584Z,13.89
